Time;durP1;ratioP1;P1;durP2;ratioP2;P2;SDS_P1;SDS_P2;PMS_P1;PMS_P2;Temp;Humidity;BMP_temperature;BMP_pressure;BME280_temperature;BME280_humidity;BME280_pressure;Samples;Min_cycle;Max_cycle;Signal;HPM_P1;HPM_P2
2022/07/05 00:00:17;;;;;;;4.90;2.20;;;;;;;22.08;48.45;102139.22;5089141;28;20028;-70
2022/07/05 00:02:43;;;;;;;3.53;2.30;;;;;;;21.98;48.59;102150.97;5088399;28;20644;-71
2022/07/05 00:05:08;;;;;;;2.85;2.05;;;;;;;22.02;48.42;102138.38;5088211;28;20514;-69
2022/07/05 00:07:34;;;;;;;3.30;2.38;;;;;;;22.02;48.58;102134.81;5088829;28;20054;-69
2022/07/05 00:09:59;;;;;;;2.45;2.13;;;;;;;21.80;49.13;102149.53;5087811;28;20089;-70
2022/07/05 00:12:27;;;;;;;3.92;2.20;;;;;;;21.82;49.07;102146.50;5089238;28;20020;-70
2022/07/05 00:14:53;;;;;;;7.22;2.22;;;;;;;21.75;48.86;102144.03;5074965;28;20036;-69
2022/07/05 00:17:19;;;;;;;2.03;1.85;;;;;;;21.69;49.45;102145.09;5067904;28;20024;-70
2022/07/05 00:19:45;;;;;;;3.88;1.90;;;;;;;21.72;49.64;102141.81;5068462;28;20033;-68
2022/07/05 00:22:10;;;;;;;5.20;2.67;;;;;;;21.60;49.38;102146.66;5068380;28;20024;-69
2022/07/05 00:24:36;;;;;;;3.53;2.38;;;;;;;21.57;49.71;102147.22;5068731;28;20040;-70
2022/07/05 00:27:02;;;;;;;3.22;2.30;;;;;;;21.42;49.89;102155.34;5069054;28;20571;-72
2022/07/05 00:29:28;;;;;;;2.45;2.22;;;;;;;21.50;49.91;102154.81;5068099;28;20032;-69
2022/07/05 00:35:15;;;;;;;4.65;2.60;;;;;;;21.34;50.83;102147.66;5068579;28;20451;-68
2022/07/05 00:37:40;;;;;;;3.63;2.67;;;;;;;21.46;50.66;102145.50;5068245;28;20040;-68
2022/07/05 00:40:07;;;;;;;5.32;2.85;;;;;;;21.46;50.35;102152.91;5063484;28;20391;-69
2022/07/05 00:42:33;;;;;;;2.80;2.40;;;;;;;21.45;50.37;102143.88;5052441;28;20041;-70
2022/07/05 00:45:17;;;;;;;4.75;2.92;;;;;;;21.42;50.25;102149.88;5061922;28;20075;-69
2022/07/05 00:47:42;;;;;;;4.68;2.60;;;;;;;21.28;50.39;102145.13;5071810;28;20539;-70
2022/07/05 00:50:08;;;;;;;5.05;3.05;;;;;;;21.38;50.11;102153.41;5072697;28;20047;-70
2022/07/05 00:52:34;;;;;;;4.82;2.72;;;;;;;21.43;50.10;102150.69;5071652;28;20052;-71
2022/07/05 00:54:59;;;;;;;2.72;2.50;;;;;;;21.31;50.45;102145.44;5071972;28;20114;-70
2022/07/05 00:57:26;;;;;;;3.72;2.75;;;;;;;21.41;49.90;102144.66;5073138;28;20025;-69
2022/07/05 00:59:52;;;;;;;3.08;2.72;;;;;;;21.40;50.38;102156.69;5054435;28;20404;-69
2022/07/05 01:02:19;;;;;;;4.10;3.00;;;;;;;21.33;50.46;102151.47;5071978;28;20051;-68
2022/07/05 01:04:46;;;;;;;8.35;3.25;;;;;;;21.38;50.41;102146.03;5072376;28;20033;-70
2022/07/05 01:07:12;;;;;;;7.32;4.30;;;;;;;21.27;50.73;102146.22;5084071;28;20029;-69
2022/07/05 01:09:37;;;;;;;3.63;2.78;;;;;;;21.31;50.71;102145.44;5092301;28;20553;-70
2022/07/05 01:12:03;;;;;;;3.97;3.28;;;;;;;21.27;50.61;102146.22;5092744;28;20120;-70
2022/07/05 01:14:29;;;;;;;11.93;3.88;;;;;;;21.28;50.58;102150.59;5085189;28;20119;-69
2022/07/05 01:16:54;;;;;;;2.88;2.58;;;;;;;21.34;50.22;102155.03;5072073;28;20124;-70
2022/07/05 01:19:21;;;;;;;10.18;3.90;;;;;;;21.25;50.17;102154.69;5071354;28;20491;-70
2022/07/05 01:21:48;;;;;;;4.78;3.22;;;;;;;21.13;50.78;102151.31;5054066;28;20032;-67
2022/07/05 01:24:16;;;;;;;12.40;4.22;;;;;;;21.12;50.45;102141.50;5072775;28;20043;-70
2022/07/05 01:26:44;;;;;;;6.45;3.30;;;;;;;21.24;50.17;102146.75;5072085;28;20541;-69
2022/07/05 01:29:10;;;;;;;2.97;2.67;;;;;;;21.10;50.95;102149.13;5071804;28;20537;-70
2022/07/05 01:31:41;;;;;;;3.42;2.78;;;;;;;21.12;50.93;102141.50;5071916;28;20036;-68
2022/07/05 01:34:07;;;;;;;5.22;2.80;;;;;;;21.12;50.71;102146.97;5071764;28;20028;-71
2022/07/05 01:36:34;;;;;;;2.75;2.45;;;;;;;20.96;51.37;102145.16;5072146;28;20087;-70
2022/07/05 01:39:01;;;;;;;5.13;3.03;;;;;;;20.88;51.41;102148.38;5072087;28;20075;-69
2022/07/05 01:41:27;;;;;;;8.32;3.58;;;;;;;21.14;51.09;102143.94;5072106;28;20090;-68
2022/07/05 01:43:53;;;;;;;6.97;3.53;;;;;;;21.04;51.10;102141.16;5071638;28;20036;-70
2022/07/05 01:46:21;;;;;;;4.68;3.03;;;;;;;21.14;51.32;102141.22;5071950;28;20557;-71
2022/07/05 01:48:50;;;;;;;5.82;3.80;;;;;;;21.08;51.07;102145.00;5071455;28;20040;-70
2022/07/05 01:51:22;;;;;;;4.03;3.22;;;;;;;21.14;51.35;102144.78;5070254;28;20104;-64
2022/07/05 01:53:51;;;;;;;3.40;2.80;;;;;;;21.22;50.88;102146.19;5083546;28;20036;-64
2022/07/05 01:56:16;;;;;;;2.78;2.42;;;;;;;21.15;50.88;102148.34;5090793;28;20044;-62
2022/07/05 01:58:42;;;;;;;3.55;3.00;;;;;;;21.25;50.96;102148.38;5090126;28;20095;-62
2022/07/05 02:01:08;;;;;;;5.53;2.72;;;;;;;21.27;50.74;102144.31;5090205;28;20130;-64
2022/07/05 02:03:34;;;;;;;3.60;2.83;;;;;;;21.25;50.87;102142.91;5090400;28;20252;-63
2022/07/05 02:05:59;;;;;;;5.18;3.33;;;;;;;21.25;50.73;102143.75;5086976;28;20093;-62
2022/07/05 02:08:29;;;;;;;6.25;2.60;;;;;;;21.21;50.55;102144.56;5069784;28;20036;-62
2022/07/05 02:10:55;;;;;;;3.50;2.70;;;;;;;21.18;51.20;102145.06;5069030;28;20054;-62
2022/07/05 02:13:21;;;;;;;7.95;3.03;;;;;;;21.27;50.65;102143.47;5069084;28;20032;-64
2022/07/05 02:15:47;;;;;;;3.55;2.88;;;;;;;21.34;50.44;102146.81;5069265;28;20132;-64
2022/07/05 02:18:12;;;;;;;6.50;2.88;;;;;;;21.36;50.59;102147.38;5069408;28;20032;-63
2022/07/05 02:20:38;;;;;;;5.82;3.63;;;;;;;21.37;50.66;102143.53;5069089;28;20091;-63
2022/07/05 02:23:04;;;;;;;3.33;2.45;;;;;;;21.43;50.63;102143.31;5049391;28;20129;-63
2022/07/05 02:25:29;;;;;;;4.25;2.80;;;;;;;21.29;51.31;102135.84;5048958;28;20052;-64
2022/07/05 02:27:55;;;;;;;3.58;2.85;;;;;;;21.34;50.66;102139.44;5084017;28;20498;-63
2022/07/05 02:30:21;;;;;;;10.25;3.00;;;;;;;21.46;50.88;102145.50;5090142;28;20558;-64
2022/07/05 02:32:46;;;;;;;5.13;2.60;;;;;;;21.47;50.42;102143.59;5088655;28;20038;-65
2022/07/05 02:35:12;;;;;;;5.68;2.90;;;;;;;21.34;51.08;102146.81;5089762;28;20032;-63
2022/07/05 02:37:41;;;;;;;4.45;2.47;;;;;;;21.22;51.37;102143.47;5088642;28;20082;-63
2022/07/05 02:40:10;;;;;;;4.65;3.38;;;;;;;21.37;51.08;102146.28;5088728;28;20044;-64
2022/07/05 02:42:37;;;;;;;3.58;3.10;;;;;;;21.34;50.53;102146.81;5090123;28;20016;-64
2022/07/05 02:45:03;;;;;;;3.88;2.72;;;;;;;21.40;50.47;102141.13;5078368;28;20568;-64
2022/07/05 02:47:33;;;;;;;5.10;3.10;;;;;;;21.39;50.63;102142.19;5068394;28;20537;-64
2022/07/05 02:50:09;;;;;;;4.85;2.90;;;;;;;21.39;50.41;102141.34;5069024;28;20131;-64
2022/07/05 02:52:35;;;;;;;4.57;3.13;;;;;;;21.37;50.24;102151.75;5072135;28;20609;-64
2022/07/05 02:55:02;;;;;;;3.95;2.90;;;;;;;21.27;50.68;102143.47;5088743;28;20126;-62
2022/07/05 02:57:27;;;;;;;6.40;3.53;;;;;;;21.25;50.35;102145.66;5089179;28;20029;-63
2022/07/05 02:59:54;;;;;;;3.50;2.70;;;;;;;21.22;51.07;102144.28;5089490;28;20040;-64
2022/07/05 03:02:20;;;;;;;8.80;4.40;;;;;;;21.25;50.49;102148.38;5085155;28;20453;-62
2022/07/05 03:04:45;;;;;;;6.40;3.45;;;;;;;21.26;50.74;102147.31;5067924;28;20066;-63
2022/07/05 03:07:10;;;;;;;6.90;3.40;;;;;;;21.29;50.59;102147.59;5068080;28;20036;-63
2022/07/05 03:09:36;;;;;;;3.40;3.10;;;;;;;21.17;51.01;102146.97;5068332;28;20500;-63
2022/07/05 03:12:01;;;;;;;5.00;4.07;;;;;;;21.16;50.61;102159.00;5068675;28;20025;-64
2022/07/05 03:14:26;;;;;;;4.53;3.72;;;;;;;21.30;50.69;102149.25;5068124;28;20506;-63
2022/07/05 03:16:52;;;;;;;3.65;3.20;;;;;;;21.26;50.23;102150.88;5067854;28;20047;-64
2022/07/05 03:19:17;;;;;;;7.00;4.20;;;;;;;21.29;50.46;102149.50;5068853;28;20036;-64
2022/07/05 03:21:43;;;;;;;10.68;3.92;;;;;;;21.27;50.51;102149.78;5067405;28;20020;-63
2022/07/05 03:24:09;;;;;;;6.57;3.67;;;;;;;21.26;50.51;102150.88;5068924;28;20029;-63
2022/07/05 03:26:34;;;;;;;6.35;3.85;;;;;;;21.23;50.44;102156.06;5074289;28;20086;-62
2022/07/05 03:29:02;;;;;;;5.03;3.75;;;;;;;21.20;50.06;102153.84;5087840;28;20043;-63
2022/07/05 03:31:27;;;;;;;6.32;3.65;;;;;;;21.21;50.18;102158.22;5088629;28;20043;-63
2022/07/05 03:33:52;;;;;;;9.02;4.82;;;;;;;21.14;50.53;102163.91;5087983;28;20028;-63
2022/07/05 03:36:18;;;;;;;4.55;4.10;;;;;;;21.15;50.20;102159.28;5088146;28;20330;-63
2022/07/05 03:38:43;;;;;;;5.45;4.50;;;;;;;21.12;50.54;102162.53;5088211;28;20040;-63
2022/07/05 03:41:09;;;;;;;7.10;3.85;;;;;;;21.20;50.56;102167.50;5087998;28;20491;-64
2022/07/05 03:43:34;;;;;;;5.88;3.95;;;;;;;21.23;50.50;102164.25;5088228;28;20063;-63
2022/07/05 03:45:59;;;;;;;6.35;3.75;;;;;;;21.12;51.01;102168.00;5069010;28;20036;-64
2022/07/05 03:48:25;;;;;;;4.57;3.60;;;;;;;21.13;51.17;102170.47;5049801;28;20517;-63
2022/07/05 03:50:50;;;;;;;7.57;3.85;;;;;;;21.26;50.53;102170.03;5068058;28;20033;-63
2022/07/05 03:53:16;;;;;;;4.78;3.70;;;;;;;21.29;51.31;102174.13;5041134;28;20035;-64
2022/07/05 03:55:42;;;;;;;7.70;4.25;;;;;;;21.36;50.74;102167.34;5053127;28;20491;-63
2022/07/05 03:58:08;;;;;;;6.05;3.63;;;;;;;21.43;50.69;102176.13;5052962;28;20028;-63
2022/07/05 04:00:34;;;;;;;6.72;3.80;;;;;;;21.33;51.30;102172.50;5033004;28;20239;-64
2022/07/05 04:03:01;;;;;;;6.68;4.10;;;;;;;21.59;50.55;102180.59;5065082;28;20431;-62
2022/07/05 04:05:27;;;;;;;9.73;3.95;;;;;;;21.50;51.04;102184.13;5069106;28;20124;-63
2022/07/05 04:07:54;;;;;;;7.45;4.13;;;;;;;21.67;50.36;102187.47;5078325;28;20028;-63
2022/07/05 04:10:21;;;;;;;6.60;3.65;;;;;;;21.81;50.46;102184.03;5073087;28;20119;-64
2022/07/05 04:12:46;;;;;;;7.45;3.58;;;;;;;21.91;50.08;102187.88;5068545;28;20119;-63
2022/07/05 04:15:13;;;;;;;7.15;4.20;;;;;;;21.95;50.43;102189.84;5069012;28;20595;-65
2022/07/05 04:17:53;;;;;;;5.05;4.50;;;;;;;22.01;50.54;102182.47;5069052;28;20029;-64
2022/07/05 04:20:21;;;;;;;4.85;3.15;;;;;;;22.04;49.84;102182.72;5069079;28;20040;-63
2022/07/05 04:22:46;;;;;;;4.68;3.35;;;;;;;22.07;50.25;102190.44;5030783;28;20037;-63
2022/07/05 04:25:18;;;;;;;6.43;4.30;;;;;;;22.12;50.32;102187.69;5048661;28;20094;-64
2022/07/05 04:27:51;;;;;;;7.93;3.47;;;;;;;22.04;50.68;102185.47;5080743;28;20036;-63
2022/07/05 04:30:18;;;;;;;6.10;3.92;;;;;;;22.09;51.16;102187.41;5089898;28;20027;-62
2022/07/05 04:32:44;;;;;;;9.05;4.38;;;;;;;22.30;49.69;102187.19;5088888;28;20039;-65
2022/07/05 04:35:10;;;;;;;7.07;4.35;;;;;;;22.36;49.90;102186.13;5071931;28;20349;-64
2022/07/05 04:37:35;;;;;;;5.68;5.05;;;;;;;22.30;49.66;102183.63;5068841;28;20404;-65
2022/07/05 04:40:02;;;;;;;8.13;4.28;;;;;;;22.36;49.82;102190.78;5060164;28;20037;-63
2022/07/05 04:42:27;;;;;;;8.18;4.65;;;;;;;22.43;50.44;102194.06;5049062;28;20040;-64
2022/07/05 04:44:52;;;;;;;6.05;5.00;;;;;;;22.41;49.79;102188.84;5057565;28;20634;-63
2022/07/05 04:47:18;;;;;;;7.95;4.55;;;;;;;22.22;50.69;102190.47;5049415;28;20044;-64
2022/07/05 04:49:43;;;;;;;5.70;4.53;;;;;;;22.39;49.95;102184.72;5068701;28;20028;-64
2022/07/05 04:52:09;;;;;;;5.72;4.00;;;;;;;22.60;49.88;102186.47;5066731;28;20029;-64
2022/07/05 04:54:36;;;;;;;6.80;4.32;;;;;;;22.41;50.75;102182.53;5066717;28;20037;-64
2022/07/05 04:57:01;;;;;;;7.15;4.82;;;;;;;22.49;50.15;102188.31;5046778;28;20041;-65
2022/07/05 04:59:26;;;;;;;4.22;3.83;;;;;;;22.21;51.24;102191.53;5038131;28;20041;-65
2022/07/05 05:01:52;;;;;;;9.90;5.10;;;;;;;22.43;50.78;102194.88;5066605;28;20024;-63
2022/07/05 05:04:17;;;;;;;16.88;4.78;;;;;;;22.33;50.84;102186.66;5066426;28;20044;-63
2022/07/05 05:06:42;;;;;;;8.15;4.32;;;;;;;22.27;50.73;102193.22;5066060;28;20074;-64
2022/07/05 05:09:08;;;;;;;7.13;4.07;;;;;;;22.09;51.53;102190.16;5067229;28;20066;-65
2022/07/05 05:11:33;;;;;;;6.80;4.20;;;;;;;22.50;50.37;102187.25;5047442;28;20044;-63
2022/07/05 05:13:59;;;;;;;6.60;4.38;;;;;;;21.96;52.15;102198.84;5066203;28;20496;-63
2022/07/05 05:16:24;;;;;;;6.20;3.60;;;;;;;22.41;50.45;102193.50;5078873;28;20032;-64
2022/07/05 05:18:49;;;;;;;5.93;4.30;;;;;;;22.14;51.25;102198.38;5086174;28;20024;-65
2022/07/05 05:21:15;;;;;;;9.35;3.53;;;;;;;22.45;50.61;102195.44;5082052;28;20531;-65
2022/07/05 05:23:40;;;;;;;6.60;4.05;;;;;;;22.65;49.82;102194.69;5066044;28;20109;-63
2022/07/05 05:26:06;;;;;;;4.70;3.75;;;;;;;22.58;50.33;102197.69;5070846;28;20037;-65
2022/07/05 05:28:31;;;;;;;5.30;3.40;;;;;;;22.45;50.67;102198.19;5090784;28;20039;-62
2022/07/05 05:30:57;;;;;;;7.45;3.72;;;;;;;22.34;50.72;102204.75;5089900;28;20044;-65
2022/07/05 05:33:22;;;;;;;8.27;3.10;;;;;;;22.68;49.86;102202.38;5090501;28;20040;-64
2022/07/05 05:35:47;;;;;;;8.23;3.78;;;;;;;22.59;49.75;102202.06;5090319;28;20043;-64
2022/07/05 05:38:13;;;;;;;5.45;3.17;;;;;;;22.99;48.88;102206.78;5089312;28;20087;-63
2022/07/05 05:40:40;;;;;;;4.72;2.90;;;;;;;23.08;49.17;102207.03;5067025;28;20043;-63
2022/07/05 05:43:06;;;;;;;5.03;2.90;;;;;;;22.90;49.02;102211.13;5069340;28;20506;-65
2022/07/05 05:45:31;;;;;;;6.35;2.88;;;;;;;23.06;48.98;102207.31;5064845;28;20021;-66
2022/07/05 05:47:59;;;;;;;9.18;3.22;;;;;;;22.55;50.58;102209.16;5047083;28;20163;-65
2022/07/05 05:50:29;;;;;;;4.53;2.95;;;;;;;22.42;50.15;102215.19;5065759;28;20056;-65
2022/07/05 05:52:55;;;;;;;;;;;;;;;22.56;50.19;102210.78;5068841;28;20098;-65
2022/07/05 05:55:22;;;;;;;5.50;2.85;;;;;;;22.44;50.76;102221.22;5067950;28;19924;-65
2022/07/05 05:57:48;;;;;;;17.90;4.97;;;;;;;22.35;50.95;102227.47;5050670;28;20074;-64
2022/07/05 06:00:14;;;;;;;5.43;3.13;;;;;;;22.88;49.75;102218.00;5069670;28;20484;-65
2022/07/05 06:02:41;;;;;;;12.13;3.25;;;;;;;22.92;49.43;102225.41;5067699;28;20033;-66
2022/07/05 06:05:07;;;;;;;6.35;3.17;;;;;;;22.78;49.22;102229.75;5068691;28;20048;-64
2022/07/05 06:07:47;;;;;;;4.45;2.85;;;;;;;22.92;49.28;102227.34;5069198;28;20028;-67
2022/07/05 06:10:17;;;;;;;10.55;3.25;;;;;;;23.28;48.43;102232.53;5066927;28;20044;-65
2022/07/05 06:12:42;;;;;;;4.65;3.03;;;;;;;22.89;48.95;102225.94;5068876;28;20079;-64
2022/07/05 06:15:08;;;;;;;6.15;2.72;;;;;;;23.22;48.57;102225.41;5069216;28;20056;-63
2022/07/05 06:17:37;;;;;;;6.20;2.55;;;;;;;23.19;48.62;102228.66;5068338;28;20055;-65
2022/07/05 06:20:12;;;;;;;5.38;2.35;;;;;;;23.22;48.44;102227.31;5069265;28;20032;-64
2022/07/05 06:22:38;;;;;;;6.55;2.60;;;;;;;23.47;47.48;102224.56;5067867;28;20495;-66
2022/07/05 06:25:05;;;;;;;9.13;2.20;;;;;;;23.10;48.42;102227.59;5066736;28;20041;-64
2022/07/05 06:27:30;;;;;;;4.95;1.90;;;;;;;22.95;48.24;102229.50;5069061;28;20017;-63
2022/07/05 06:29:56;;;;;;;8.10;2.25;;;;;;;22.95;47.53;102232.25;5068623;28;20043;-66
2022/07/05 06:32:21;;;;;;;4.18;2.22;;;;;;;23.09;46.35;102234.19;5067936;28;20044;-66
2022/07/05 06:34:47;;;;;;;8.93;2.88;;;;;;;23.06;46.90;102231.16;5068804;28;20492;-66
2022/07/05 06:37:12;;;;;;;4.53;2.20;;;;;;;23.62;46.09;102235.53;5068521;28;20260;-64
2022/07/05 06:39:38;;;;;;;3.58;1.85;;;;;;;24.17;44.86;102242.75;5065229;28;20028;-65
2022/07/05 06:42:03;;;;;;;5.72;1.95;;;;;;;24.25;45.00;102239.44;5065137;28;20027;-64
2022/07/05 06:44:29;;;;;;;3.92;2.35;;;;;;;23.61;45.08;102250.31;5064790;28;20048;-63
2022/07/05 06:46:54;;;;;;;4.90;2.22;;;;;;;23.56;45.24;102247.59;5066743;28;20056;-66
2022/07/05 06:49:19;;;;;;;4.18;2.30;;;;;;;23.17;46.31;102250.09;5067257;28;20033;-65
2022/07/05 06:51:45;;;;;;;5.75;1.75;;;;;;;24.11;44.71;102247.47;5066583;28;20507;-65
2022/07/05 06:54:10;;;;;;;4.72;1.80;;;;;;;23.88;45.47;102250.78;5049044;28;20051;-64
2022/07/05 06:56:35;;;;;;;4.00;2.30;;;;;;;23.73;45.46;102247.28;5066897;28;20352;-65
2022/07/05 06:59:02;;;;;;;4.50;1.60;;;;;;;24.23;43.72;102247.97;5063564;28;20036;-64
2022/07/05 07:01:28;;;;;;;5.68;1.80;;;;;;;23.54;45.99;102252.56;5068809;28;20040;-64
2022/07/05 07:03:53;;;;;;;8.07;1.73;;;;;;;23.81;45.16;102258.53;5066759;28;20402;-66
2022/07/05 07:06:19;;;;;;;3.13;1.60;;;;;;;24.15;44.55;102258.72;5067295;28;20277;-64
2022/07/05 07:11:29;;;;;;;5.07;1.95;;;;;;;24.44;43.73;102265.16;5064878;28;20071;-64
2022/07/05 07:13:54;;;;;;;5.80;1.88;;;;;;;24.06;44.52;102254.88;5066384;28;20100;-65
2022/07/05 07:16:20;;;;;;;3.90;1.95;;;;;;;23.92;45.21;102256.56;5050161;28;20035;-65
2022/07/05 07:18:45;;;;;;;4.70;1.98;;;;;;;23.95;44.43;102256.84;5067254;28;20017;-67
2022/07/05 07:21:10;;;;;;;4.70;2.03;;;;;;;24.33;44.44;102261.63;5068452;28;20050;-65
2022/07/05 07:23:36;;;;;;;8.50;2.53;;;;;;;24.06;44.90;102260.38;5067189;28;20063;-65
2022/07/05 07:26:02;;;;;;;5.50;2.35;;;;;;;24.15;45.09;102258.72;5069044;28;20055;-65
2022/07/05 07:28:28;;;;;;;3.63;2.75;;;;;;;23.93;45.93;102263.69;5068163;28;20063;-64
2022/07/05 07:30:54;;;;;;;3.22;2.30;;;;;;;24.11;44.80;102258.47;5066242;28;20511;-65
2022/07/05 07:33:19;;;;;;;4.22;2.13;;;;;;;23.97;45.56;102268.34;5067315;28;20037;-64
2022/07/05 07:35:44;;;;;;;7.30;2.45;;;;;;;23.83;46.02;102270.03;5066801;28;20086;-64
2022/07/05 07:38:10;;;;;;;5.18;2.72;;;;;;;24.14;44.70;102268.03;5046383;28;20040;-66
2022/07/05 07:40:35;;;;;;;10.50;2.78;;;;;;;24.11;45.15;102268.63;5047653;28;20033;-65
2022/07/05 07:43:01;;;;;;;6.65;2.72;;;;;;;24.32;44.73;102271.00;5065045;28;20096;-65
2022/07/05 07:45:27;;;;;;;5.43;2.25;;;;;;;24.20;44.00;102272.41;5061429;28;20045;-64
2022/07/05 07:47:53;;;;;;;4.90;1.38;;;;;;;24.14;44.22;102277.09;5074829;28;20103;-64
2022/07/05 07:50:18;;;;;;;3.38;1.40;;;;;;;24.09;43.04;102271.66;5065991;28;20090;-66
2022/07/05 07:52:44;;;;;;;3.30;1.25;;;;;;;24.58;41.76;102273.59;5066408;28;20400;-65
2022/07/05 07:55:10;;;;;;;2.25;1.15;;;;;;;24.45;42.19;102272.31;5065837;28;20032;-65
2022/07/05 07:57:36;;;;;;;2.85;1.23;;;;;;;24.31;41.92;102269.31;5066502;28;20079;-65
2022/07/05 08:00:02;;;;;;;2.83;1.17;;;;;;;24.30;42.56;102275.13;5066458;28;20408;-66
2022/07/05 08:02:27;;;;;;;6.22;1.17;;;;;;;24.23;42.11;102277.34;5066090;28;20073;-65
2022/07/05 08:04:53;;;;;;;3.50;1.02;;;;;;;24.29;42.02;102278.97;5066256;28;20040;-65
2022/07/05 08:07:19;;;;;;;6.28;1.40;;;;;;;23.65;42.85;102272.53;5066152;28;20033;-66
2022/07/05 08:09:45;;;;;;;4.28;1.00;;;;;;;24.76;40.27;102276.56;5065298;28;20051;-65
2022/07/05 08:12:10;;;;;;;3.53;1.48;;;;;;;24.43;41.02;102274.53;5066790;28;20415;-65
2022/07/05 08:14:36;;;;;;;3.00;1.10;;;;;;;24.55;40.71;102274.97;5065920;28;20106;-65
2022/07/05 08:17:01;;;;;;;4.82;1.60;;;;;;;23.84;41.42;102276.38;5074734;28;20024;-64
2022/07/05 08:22:11;;;;;;;3.55;2.13;;;;;;;24.85;39.86;102269.31;5066032;28;20106;-65
2022/07/05 08:24:39;;;;;;;4.15;1.15;;;;;;;25.27;38.82;102261.28;5066873;28;20151;-65
2022/07/05 08:27:04;;;;;;;4.60;1.13;;;;;;;25.23;38.10;102268.47;5066180;28;20072;-65
2022/07/05 08:29:30;;;;;;;6.30;1.20;;;;;;;25.05;37.61;102274.69;5066116;28;20064;-66
2022/07/05 08:31:55;;;;;;;7.35;1.10;;;;;;;25.15;38.27;102269.09;5066467;28;20110;-63
2022/07/05 08:34:20;;;;;;;6.93;1.13;;;;;;;25.00;38.58;102271.16;5055164;28;20078;-65
2022/07/05 08:36:47;;;;;;;3.15;1.25;;;;;;;25.32;37.82;102270.63;5066477;28;20024;-65
2022/07/05 08:39:13;;;;;;;2.33;0.90;;;;;;;25.33;37.80;102272.25;5066057;28;20036;-65
2022/07/05 08:41:40;;;;;;;7.90;1.50;;;;;;;25.08;37.71;102267.78;5065348;28;20041;-64
2022/07/05 08:44:06;;;;;;;1.38;0.77;;;;;;;24.75;38.63;102268.56;5062714;28;20040;-63
2022/07/05 08:46:32;;;;;;;9.48;1.38;;;;;;;24.89;38.47;102270.41;5065753;28;20510;-65
2022/07/05 08:49:04;;;;;;;1.77;0.93;;;;;;;24.97;38.03;102278.03;5065335;28;20037;-63
2022/07/05 08:51:33;;;;;;;3.13;1.15;;;;;;;25.45;37.55;102267.22;5064622;28;20479;-64
2022/07/05 08:53:59;;;;;;;3.17;1.23;;;;;;;25.02;37.07;102272.50;5064212;28;20055;-65
2022/07/05 08:56:25;;;;;;;5.70;1.17;;;;;;;24.95;37.89;102268.44;5065101;28;20485;-66
2022/07/05 08:58:50;;;;;;;4.68;0.95;;;;;;;24.88;39.13;102268.78;5065495;28;20032;-66
2022/07/05 09:01:16;;;;;;;2.90;1.10;;;;;;;24.06;41.30;102269.44;5068349;28;20036;-65
2022/07/05 09:03:49;;;;;;;1.30;0.85;;;;;;;24.30;42.65;102277.88;5069843;28;20086;-65
2022/07/05 09:06:21;;;;;;;2.65;1.27;;;;;;;23.80;43.68;102287.09;5052027;28;20115;-65
2022/07/05 09:08:48;;;;;;;5.78;1.70;;;;;;;24.22;41.97;102272.94;5069396;28;20045;-65
2022/07/05 09:11:15;;;;;;;2.60;1.10;;;;;;;24.88;40.63;102278.94;5069440;28;20150;-65
2022/07/05 09:13:44;;;;;;;2.33;1.08;;;;;;;24.56;39.92;102289.56;5069269;28;20043;-64
2022/07/05 09:16:09;;;;;;;2.53;1.00;;;;;;;25.07;39.14;102288.16;5077609;28;20446;-64
2022/07/05 09:18:49;;;;;;;2.72;0.80;;;;;;;25.20;39.06;102288.31;5070040;28;20111;-64
2022/07/05 09:21:19;;;;;;;4.43;0.88;;;;;;;24.86;39.86;102290.25;5069989;28;20064;-64
2022/07/05 09:23:52;;;;;;;;;;;;;;;25.03;39.45;102282.41;5064104;28;20353;-65
2022/07/05 09:26:17;;;;;;;3.92;1.05;;;;;;;25.31;39.21;102288.22;5068823;28;19932;-65
2022/07/05 09:28:54;;;;;;;3.60;1.00;;;;;;;25.73;37.67;102285.66;5066921;28;20048;-66
2022/07/05 09:31:34;;;;;;;2.80;1.00;;;;;;;25.32;38.23;102289.88;5068097;28;20036;-66
2022/07/05 09:34:10;;;;;;;5.05;1.48;;;;;;;24.45;40.09;102285.22;5067140;28;20116;-68
2022/07/05 09:36:55;;;;;;;3.65;0.73;;;;;;;24.87;39.32;102278.13;5068761;28;20514;-64
2022/07/05 09:39:29;;;;;;;2.95;1.23;;;;;;;25.11;38.77;102286.47;5066118;28;20048;-67
2022/07/05 09:42:10;;;;;;;5.00;1.05;;;;;;;25.02;39.23;102288.19;5068072;28;20043;-65
2022/07/05 09:44:37;;;;;;;3.05;0.82;;;;;;;25.22;38.25;102291.59;5072879;28;20040;-66
2022/07/05 09:47:11;;;;;;;2.05;1.15;;;;;;;26.02;37.45;102287.22;5066387;28;20037;-64
2022/07/05 09:49:44;;;;;;;7.10;1.17;;;;;;;26.44;36.46;102288.38;5064851;28;20043;-64
2022/07/05 09:52:25;;;;;;;4.25;1.08;;;;;;;25.84;36.09;102290.78;5068341;28;20032;-65
2022/07/05 09:55:18;;;;;;;2.53;0.90;;;;;;;26.03;35.60;102290.81;5069054;28;20032;-66
2022/07/05 09:57:44;;;;;;;2.15;0.93;;;;;;;26.56;34.74;102295.13;5068129;28;20495;-66
2022/07/05 10:00:18;;;;;;;3.53;1.60;;;;;;;25.94;35.69;102285.16;5068761;28;20059;-64
2022/07/05 10:02:45;;;;;;;1.60;0.70;;;;;;;26.61;33.95;102286.75;5068134;28;20033;-64
2022/07/05 10:05:16;;;;;;;5.82;1.05;;;;;;;26.34;34.76;102292.09;5068906;28;20357;-65
2022/07/05 10:07:45;;;;;;;4.38;1.05;;;;;;;26.38;34.83;102287.66;5067716;28;20438;-65
2022/07/05 10:10:13;;;;;;;2.85;0.90;;;;;;;26.53;34.28;102289.38;5033526;28;20033;-66
2022/07/05 10:12:39;;;;;;;7.07;0.90;;;;;;;25.37;35.93;102289.81;5068067;28;20125;-65
2022/07/05 10:15:09;;;;;;;3.30;0.70;;;;;;;25.10;36.97;102298.59;5069642;28;20408;-65
2022/07/05 10:17:37;;;;;;;2.72;1.35;;;;;;;25.49;36.66;102302.16;5065491;28;20450;-66
2022/07/05 10:20:08;;;;;;;3.78;1.10;;;;;;;25.44;36.81;102306.84;5069206;28;20452;-66
2022/07/05 10:22:35;;;;;;;5.70;1.10;;;;;;;25.60;37.16;102306.44;5068051;28;20032;-64
2022/07/05 10:25:01;;;;;;;5.32;1.15;;;;;;;25.59;37.06;102298.47;5049676;28;20032;-64
2022/07/05 10:27:27;;;;;;;3.15;0.80;;;;;;;25.45;37.12;102292.00;5068285;28;20028;-66
2022/07/05 10:29:56;;;;;;;5.40;1.17;;;;;;;25.60;36.92;102302.84;5066449;28;20037;-66
2022/07/05 10:32:22;;;;;;;5.25;1.25;;;;;;;25.65;37.02;102303.63;5066377;28;20629;-80
2022/07/05 10:34:51;;;;;;;3.38;0.90;;;;;;;25.72;37.55;102300.53;5067224;28;20085;-78
2022/07/05 10:37:16;;;;;;;3.00;0.90;;;;;;;25.27;37.73;102299.81;5069074;28;20040;-76
2022/07/05 10:39:42;;;;;;;3.47;1.23;;;;;;;24.96;38.24;102303.09;5068182;28;20075;-75
2022/07/05 10:42:08;;;;;;;2.95;1.20;;;;;;;25.26;38.29;102300.09;5069401;28;20024;-76
2022/07/05 10:44:34;;;;;;;7.82;1.52;;;;;;;25.99;36.73;102293.34;5068757;28;20464;-78
2022/07/05 10:47:10;;;;;;;6.15;1.20;;;;;;;27.00;36.66;102294.78;5067449;28;20116;-75
2022/07/05 10:49:37;;;;;;;4.38;1.48;;;;;;;26.97;35.25;102298.13;5067641;28;20506;-77
2022/07/05 10:52:03;;;;;;;6.18;1.27;;;;;;;26.96;35.93;102293.75;5067639;28;20032;-81
2022/07/05 10:54:28;;;;;;;4.35;0.82;;;;;;;26.56;34.71;102286.03;5069316;28;20039;-77
2022/07/05 10:57:23;;;;;;;4.85;1.40;;;;;;;27.24;34.60;102283.63;5067829;28;20080;-79
2022/07/05 11:00:11;;;;;;;7.15;1.88;;;;;;;27.35;33.60;102277.66;5068585;28;20129;-83
2022/07/05 11:02:37;;;;;;;2.13;0.90;;;;;;;27.09;33.49;102284.69;5055505;28;20055;-75
2022/07/05 11:05:03;;;;;;;5.93;1.10;;;;;;;26.73;36.03;102294.66;5065402;28;20044;-76
2022/07/05 11:07:57;;;;;;;5.53;1.50;;;;;;;26.00;37.64;102297.72;5049366;28;20078;-78
2022/07/05 11:10:22;;;;;;;7.10;1.25;;;;;;;25.90;37.97;102289.59;5066970;28;20522;-81
2022/07/05 11:12:48;;;;;;;2.55;1.00;;;;;;;24.95;39.39;102288.50;5065179;28;20048;-76
2022/07/05 11:15:14;;;;;;;4.22;1.00;;;;;;;26.15;37.60;102290.44;5066160;28;20032;-81
2022/07/05 11:17:39;;;;;;;4.57;1.20;;;;;;;26.07;38.28;102292.72;5067872;28;20488;-79
2022/07/05 11:20:26;;;;;;;3.33;1.08;;;;;;;25.58;38.46;102294.06;5070474;28;20127;-79
2022/07/05 11:23:06;;;;;;;2.63;0.73;;;;;;;24.57;39.51;102305.75;5048041;28;20046;-74
2022/07/05 11:25:34;;;;;;;2.75;0.95;;;;;;;25.16;39.07;102305.66;5066855;28;20071;-78
2022/07/05 11:28:24;;;;;;;4.63;1.00;;;;;;;25.89;38.19;102298.13;5068791;28;20039;-83
2022/07/05 11:30:53;;;;;;;4.28;0.90;;;;;;;26.76;36.34;102296.81;5060497;28;20131;-79
2022/07/05 11:33:34;;;;;;;4.55;1.40;;;;;;;26.68;36.54;102306.53;5067390;28;20534;-78